Time;durP1;ratioP1;P1;durP2;ratioP2;P2;SDS_P1;SDS_P2;PMS_P1;PMS_P2;Temp;Humidity;BMP_temperature;BMP_pressure;BME280_temperature;BME280_humidity;BME280_pressure;Samples;Min_cycle;Max_cycle;Signal;HPM_P1;HPM_P2
2023/01/12 00:01:40;;;;;;;1.48;1.00;;;5.40;99.90;;;;;;5070470;28;20224;-68
2023/01/12 00:04:07;;;;;;;3.38;1.30;;;5.40;99.90;;;;;;5070668;28;20211;-67
2023/01/12 00:06:34;;;;;;;6.43;1.80;;;5.40;99.90;;;;;;5070834;28;20256;-67
2023/01/12 00:09:06;;;;;;;3.83;1.30;;;5.40;99.90;;;;;;5069633;28;20200;-67
2023/01/12 00:11:33;;;;;;;4.53;1.30;;;5.40;99.90;;;;;;5070712;28;20216;-67
2023/01/12 00:14:00;;;;;;;1.83;1.50;;;5.30;99.90;;;;;;5069971;28;20230;-67
2023/01/12 00:16:39;;;;;;;2.28;1.25;;;5.30;99.90;;;;;;5070626;28;20224;-68
2023/01/12 00:19:10;;;;;;;2.35;1.10;;;5.30;99.90;;;;;;5069411;28;20302;-68
2023/01/12 00:21:57;;;;;;;2.35;1.20;;;5.40;99.90;;;;;;5070336;28;20224;-67
2023/01/12 00:24:25;;;;;;;4.93;1.40;;;5.40;99.90;;;;;;5070181;28;20204;-68
2023/01/12 00:26:52;;;;;;;2.33;1.25;;;5.40;99.90;;;;;;5070131;28;20274;-70
2023/01/12 00:29:20;;;;;;;2.15;1.17;;;5.40;99.90;;;;;;5069813;28;20207;-69
2023/01/12 00:31:47;;;;;;;3.83;1.73;;;5.40;99.90;;;;;;5070265;28;20200;-69
2023/01/12 00:34:15;;;;;;;1.70;1.02;;;5.50;99.90;;;;;;5070451;28;20196;-70
2023/01/12 00:36:42;;;;;;;1.77;1.20;;;5.50;99.90;;;;;;5070088;28;20224;-69
2023/01/12 00:39:09;;;;;;;1.60;1.20;;;5.60;99.90;;;;;;5069883;28;20200;-69
2023/01/12 00:47:06;;;;;;;2.42;1.33;;;5.60;99.90;;;;;;5070099;28;20239;-69
2023/01/12 00:49:35;;;;;;;3.50;1.45;;;5.70;99.90;;;;;;5069872;28;20254;-69
2023/01/12 00:52:02;;;;;;;1.50;1.00;;;5.80;99.90;;;;;;5069862;28;20212;-69
2023/01/12 00:54:28;;;;;;;1.48;1.20;;;5.90;99.90;;;;;;5069891;28;20208;-70
2023/01/12 00:56:56;;;;;;;5.22;1.65;;;5.90;99.90;;;;;;5069923;28;20248;-69
2023/01/12 00:59:22;;;;;;;1.80;1.10;;;6.00;99.90;;;;;;5069424;28;20266;-69
2023/01/12 01:01:49;;;;;;;3.55;1.17;;;6.10;99.90;;;;;;5070046;28;20220;-70
2023/01/12 01:04:16;;;;;;;2.55;1.50;;;6.10;99.90;;;;;;5069812;28;20215;-69
2023/01/12 01:06:44;;;;;;;2.63;1.35;;;6.10;99.90;;;;;;5070085;28;20232;-69
2023/01/12 01:09:10;;;;;;;3.45;1.13;;;6.10;99.90;;;;;;5069196;28;20211;-67
2023/01/12 01:11:37;;;;;;;2.35;1.13;;;6.10;99.90;;;;;;5069807;28;20209;-70
2023/01/12 01:14:05;;;;;;;3.65;1.40;;;6.20;99.90;;;;;;5069707;28;20215;-70
2023/01/12 01:16:33;;;;;;;2.60;1.33;;;6.20;99.90;;;;;;5069450;28;20223;-69
2023/01/12 01:19:01;;;;;;;5.63;1.30;;;6.20;99.90;;;;;;5068763;28;20215;-69
2023/01/12 01:21:28;;;;;;;3.15;1.70;;;6.20;99.90;;;;;;5068930;28;20228;-69
2023/01/12 01:23:56;;;;;;;1.60;1.40;;;6.30;99.90;;;;;;5069138;28;20771;-68
2023/01/12 01:26:24;;;;;;;2.13;1.23;;;6.30;99.90;;;;;;5069116;28;20224;-69
2023/01/12 01:28:51;;;;;;;2.72;1.13;;;6.30;99.90;;;;;;5068546;28;20896;-68
2023/01/12 01:31:20;;;;;;;1.77;1.30;;;6.30;99.90;;;;;;5069038;28;20212;-69
2023/01/12 01:33:48;;;;;;;4.00;1.65;;;6.30;99.90;;;;;;5068960;28;20300;-69
2023/01/12 01:36:15;;;;;;;3.08;1.10;;;6.30;99.90;;;;;;5068970;28;20247;-68
2023/01/12 01:38:43;;;;;;;4.28;1.55;;;6.20;99.90;;;;;;5068833;28;20204;-68
2023/01/12 01:41:18;;;;;;;1.73;1.55;;;6.20;99.90;;;;;;5068638;28;20200;-69
2023/01/12 01:43:59;;;;;;;2.60;1.40;;;6.20;99.90;;;;;;5069078;28;20219;-69
2023/01/12 01:46:43;;;;;;;2.05;1.10;;;6.20;99.90;;;;;;5069020;28;20223;-70
2023/01/12 01:49:24;;;;;;;2.05;1.30;;;6.30;99.90;;;;;;5068253;28;20211;-69
2023/01/12 01:51:53;;;;;;;3.65;1.23;;;6.30;99.90;;;;;;5068560;28;20204;-69
2023/01/12 01:54:20;;;;;;;3.13;1.30;;;6.30;99.90;;;;;;5068776;28;20668;-69
2023/01/12 01:56:49;;;;;;;4.35;1.40;;;6.30;99.90;;;;;;5068034;28;20225;-69
2023/01/12 01:59:22;;;;;;;2.40;1.30;;;6.40;99.90;;;;;;5070966;28;20663;-69
2023/01/12 02:01:49;;;;;;;2.80;1.38;;;6.40;99.90;;;;;;5071389;28;20776;-69
2023/01/12 02:04:15;;;;;;;1.65;1.30;;;6.40;99.90;;;;;;5070768;28;20204;-69
2023/01/12 02:06:43;;;;;;;4.25;1.20;;;6.40;99.90;;;;;;5071000;28;20217;-69
2023/01/12 02:09:15;;;;;;;4.13;1.50;;;6.40;99.90;;;;;;5070055;28;20203;-69
2023/01/12 02:17:26;;;;;;;3.78;1.50;;;6.50;99.90;;;;;;5070686;28;20223;-69
2023/01/12 02:20:20;;;;;;;3.35;1.63;;;6.50;99.90;;;;;;5069924;28;20204;-69
2023/01/12 02:23:14;;;;;;;2.40;1.45;;;6.50;99.90;;;;;;5070797;28;20232;-69
2023/01/12 02:26:10;;;;;;;6.82;1.80;;;6.50;99.90;;;;;;5039799;28;20200;-69
2023/01/12 02:29:12;;;;;;;1.10;0.90;;;6.50;99.90;;;;;;5070556;28;20671;-69
2023/01/12 02:31:57;;;;;;;3.75;1.67;;;6.50;99.90;;;;;;5068793;28;20200;-69
2023/01/12 02:34:31;;;;;;;2.25;1.17;;;6.50;99.90;;;;;;5070869;28;20208;-69
2023/01/12 02:37:07;;;;;;;3.28;1.40;;;6.40;99.90;;;;;;5070742;28;20596;-69
2023/01/12 02:39:40;;;;;;;1.88;1.73;;;6.40;99.90;;;;;;5070341;28;20211;-69
2023/01/12 02:45:07;;;;;;;3.22;1.38;;;6.40;99.90;;;;;;5070689;28;20576;-69
2023/01/12 02:47:46;;;;;;;4.65;1.42;;;6.30;99.90;;;;;;5070802;28;20220;-69
2023/01/12 02:50:18;;;;;;;4.40;1.30;;;6.30;99.90;;;;;;5069897;28;20212;-69
2023/01/12 02:52:50;;;;;;;3.38;1.50;;;6.20;99.90;;;;;;5071052;28;20192;-69
2023/01/12 02:55:19;;;;;;;3.17;1.73;;;6.20;99.90;;;;;;5070502;28;20205;-69
2023/01/12 02:57:46;;;;;;;1.50;1.10;;;6.20;99.90;;;;;;5070745;28;20220;-69
2023/01/12 03:00:16;;;;;;;3.20;1.77;;;6.10;99.90;;;;;;5070049;28;20215;-69
2023/01/12 03:02:44;;;;;;;2.53;1.33;;;6.10;99.90;;;;;;5069972;28;20265;-69
2023/01/12 03:05:11;;;;;;;1.92;1.20;;;6.10;99.90;;;;;;5070442;28;20208;-68
2023/01/12 03:07:43;;;;;;;4.90;1.85;;;6.10;99.90;;;;;;5070349;28;20220;-69
2023/01/12 03:10:27;;;;;;;3.00;1.40;;;6.10;99.90;;;;;;5069948;28;20204;-69
2023/01/12 03:12:57;;;;;;;3.33;1.60;;;6.10;99.90;;;;;;5069727;28;20192;-69
2023/01/12 03:15:27;;;;;;;2.20;1.50;;;6.10;99.90;;;;;;5070515;28;20234;-69
2023/01/12 03:17:59;;;;;;;3.80;1.75;;;6.10;99.90;;;;;;5070647;28;20629;-69
2023/01/12 03:20:30;;;;;;;1.52;1.17;;;6.10;99.90;;;;;;5069556;28;20218;-69
2023/01/12 03:23:01;;;;;;;2.47;1.45;;;6.10;99.90;;;;;;5070217;28;20224;-69
2023/01/12 03:25:31;;;;;;;2.83;1.17;;;6.10;99.90;;;;;;5070199;28;20200;-69
2023/01/12 03:27:59;;;;;;;5.95;1.80;;;6.10;99.90;;;;;;5070359;28;20640;-69
2023/01/12 03:30:31;;;;;;;2.08;1.00;;;6.10;99.90;;;;;;5069510;28;20679;-69
2023/01/12 03:32:59;;;;;;;3.45;1.38;;;6.10;99.90;;;;;;5071172;28;20199;-69
2023/01/12 03:35:27;;;;;;;2.75;1.30;;;6.20;99.90;;;;;;5074311;28;20196;-69
2023/01/12 03:37:58;;;;;;;1.38;1.13;;;6.20;99.90;;;;;;5070397;28;20247;-68
2023/01/12 03:40:29;;;;;;;5.40;1.65;;;6.20;99.90;;;;;;5071292;28;20188;-69
2023/01/12 03:42:59;;;;;;;2.72;1.60;;;6.20;99.90;;;;;;5073507;28;20227;-68
2023/01/12 03:45:33;;;;;;;3.80;1.30;;;6.20;99.90;;;;;;5073635;28;20573;-69
2023/01/12 03:48:09;;;;;;;1.65;1.00;;;6.20;99.90;;;;;;5073400;28;20222;-69
2023/01/12 03:50:41;;;;;;;2.97;1.83;;;6.30;99.90;;;;;;5073538;28;20196;-69
2023/01/12 03:53:09;;;;;;;1.63;1.38;;;6.30;99.90;;;;;;5073013;28;20560;-69
2023/01/12 03:55:38;;;;;;;6.18;1.77;;;6.30;99.90;;;;;;5073894;28;20196;-69
2023/01/12 03:58:05;;;;;;;4.03;1.67;;;6.30;99.90;;;;;;5073790;28;20201;-69
2023/01/12 04:00:32;;;;;;;5.95;1.73;;;6.20;99.90;;;;;;5072669;28;20213;-68
2023/01/12 04:03:07;;;;;;;2.65;1.85;;;6.30;99.90;;;;;;5073360;28;20224;-68
2023/01/12 04:05:34;;;;;;;2.70;1.40;;;6.30;99.90;;;;;;5072662;28;20211;-69
2023/01/12 04:08:01;;;;;;;2.55;1.10;;;6.30;99.90;;;;;;5072809;28;20208;-69
2023/01/12 04:10:27;;;;;;;4.80;1.02;;;6.30;99.90;;;;;;5072520;28;20223;-69
2023/01/12 04:12:54;;;;;;;3.13;1.35;;;6.30;99.90;;;;;;5072872;28;20203;-68
2023/01/12 04:15:21;;;;;;;3.60;1.10;;;6.30;99.90;;;;;;5072933;28;20204;-68
2023/01/12 04:17:47;;;;;;;2.22;1.40;;;6.30;99.90;;;;;;5072421;28;20227;-68
2023/01/12 04:20:16;;;;;;;1.85;1.30;;;6.40;99.90;;;;;;5071943;28;20682;-68
2023/01/12 04:22:43;;;;;;;2.08;1.50;;;6.40;99.90;;;;;;5072524;28;20235;-68
2023/01/12 04:25:10;;;;;;;1.60;1.30;;;6.40;99.90;;;;;;5072755;28;20683;-68
2023/01/12 04:27:40;;;;;;;1.90;1.20;;;6.40;99.90;;;;;;5073112;28;20574;-68
2023/01/12 04:30:08;;;;;;;1.75;1.15;;;6.50;99.90;;;;;;5070850;28;20192;-68
2023/01/12 04:32:34;;;;;;;1.92;1.42;;;6.50;99.90;;;;;;5072820;28;20201;-68
2023/01/12 04:35:01;;;;;;;1.63;1.30;;;6.40;99.90;;;;;;5071609;28;20570;-68
2023/01/12 04:37:31;;;;;;;2.10;1.00;;;6.40;99.90;;;;;;5071280;28;20227;-68
2023/01/12 04:39:58;;;;;;;2.38;1.27;;;6.40;99.90;;;;;;5070458;28;20586;-69
2023/01/12 04:45:10;;;;;;;2.90;1.42;;;6.50;99.90;;;;;;5068120;28;20195;-70
2023/01/12 04:47:36;;;;;;;1.65;1.13;;;6.40;99.90;;;;;;5071078;28;20216;-71
2023/01/12 04:50:04;;;;;;;6.35;1.70;;;6.40;99.90;;;;;;5070725;28;20204;-70
2023/01/12 04:52:32;;;;;;;1.05;0.90;;;6.50;99.90;;;;;;5069497;28;20196;-70
2023/01/12 04:54:59;;;;;;;1.13;1.02;;;6.50;99.90;;;;;;5071386;28;20207;-69
2023/01/12 04:57:25;;;;;;;5.00;1.60;;;6.50;99.90;;;;;;5068865;28;20208;-70
2023/01/12 04:59:52;;;;;;;1.63;1.30;;;6.50;99.90;;;;;;5070142;28;20196;-69
2023/01/12 05:02:19;;;;;;;4.30;1.50;;;6.50;99.90;;;;;;5070470;28;20192;-70
2023/01/12 05:04:46;;;;;;;3.63;1.40;;;6.50;99.90;;;;;;5068068;28;20200;-70
2023/01/12 05:07:13;;;;;;;5.05;1.30;;;6.50;99.90;;;;;;5070515;28;20216;-69
2023/01/12 05:12:26;;;;;;;2.17;1.60;;;6.60;99.90;;;;;;5068194;28;20208;-70
2023/01/12 05:14:53;;;;;;;4.03;1.40;;;6.60;99.90;;;;;;5070998;28;20552;-69
2023/01/12 05:17:20;;;;;;;3.00;1.45;;;6.70;99.90;;;;;;5069959;28;20228;-69
2023/01/12 05:19:48;;;;;;;2.60;1.60;;;6.70;99.90;;;;;;5069542;28;21018;-70
2023/01/12 05:22:15;;;;;;;5.25;2.17;;;6.70;99.90;;;;;;5071398;28;20261;-70
2023/01/12 05:24:43;;;;;;;3.25;1.40;;;6.70;99.90;;;;;;5071363;28;20192;-70
2023/01/12 05:27:10;;;;;;;4.15;1.80;;;6.70;99.90;;;;;;5071114;28;20762;-70
2023/01/12 05:29:36;;;;;;;8.48;1.80;;;6.80;99.90;;;;;;5070876;28;20209;-70
2023/01/12 05:32:03;;;;;;;1.80;1.23;;;6.80;99.90;;;;;;5071199;28;20211;-69
2023/01/12 05:34:30;;;;;;;3.50;1.48;;;6.80;99.90;;;;;;5071217;28;20663;-70
2023/01/12 05:36:56;;;;;;;1.50;1.00;;;6.80;99.90;;;;;;5071454;28;20220;-70
2023/01/12 05:39:23;;;;;;;6.30;1.45;;;6.90;99.90;;;;;;5070614;28;20212;-70
2023/01/12 05:44:36;;;;;;;4.80;2.00;;;6.90;99.90;;;;;;5071439;28;20285;-70
2023/01/12 05:47:02;;;;;;;1.23;1.13;;;6.90;99.90;;;;;;5070743;28;20239;-70
2023/01/12 05:49:29;;;;;;;3.30;1.63;;;6.80;99.90;;;;;;5070755;28;20664;-69
2023/01/12 05:51:56;;;;;;;3.15;1.52;;;6.90;99.90;;;;;;5070125;28;20208;-69
2023/01/12 05:54:23;;;;;;;1.20;1.08;;;6.80;99.90;;;;;;5070708;28;20200;-70
2023/01/12 05:56:51;;;;;;;6.40;1.73;;;6.90;99.90;;;;;;5069341;28;20227;-69
2023/01/12 05:59:17;;;;;;;5.93;1.65;;;6.90;99.90;;;;;;5070356;28;20583;-70
2023/01/12 06:01:44;;;;;;;3.55;1.40;;;6.80;99.90;;;;;;5070130;28;20691;-69
2023/01/12 06:04:11;;;;;;;5.32;1.67;;;6.80;99.90;;;;;;5069948;28;20228;-70
2023/01/12 06:06:37;;;;;;;2.08;1.15;;;6.80;99.90;;;;;;5070962;28;20216;-70
2023/01/12 06:09:04;;;;;;;3.97;1.40;;;6.80;99.90;;;;;;5070104;28;20671;-69
2023/01/12 06:14:17;;;;;;;7.80;1.95;;;6.70;99.90;;;;;;5070319;28;20195;-69
2023/01/12 06:16:44;;;;;;;3.47;1.50;;;6.70;99.90;;;;;;5070398;28;20220;-70
2023/01/12 06:19:12;;;;;;;4.80;1.65;;;6.70;99.90;;;;;;5069879;28;20239;-70
2023/01/12 06:21:39;;;;;;;3.22;1.65;;;6.70;99.90;;;;;;5070464;28;20625;-69
2023/01/12 06:24:06;;;;;;;2.95;1.50;;;6.70;99.90;;;;;;5070266;28;20307;-69
2023/01/12 06:26:33;;;;;;;2.20;1.05;;;6.70;99.90;;;;;;5070360;28;20234;-69
2023/01/12 06:29:00;;;;;;;3.20;1.60;;;6.60;99.90;;;;;;5069632;28;20574;-69
2023/01/12 06:31:28;;;;;;;2.25;1.35;;;6.60;99.90;;;;;;5070330;28;20201;-70
2023/01/12 06:33:55;;;;;;;5.10;1.17;;;6.60;99.90;;;;;;5070533;28;20203;-69
2023/01/12 06:36:21;;;;;;;5.40;1.10;;;6.50;99.90;;;;;;5070168;28;20228;-70
2023/01/12 06:38:48;;;;;;;2.08;1.17;;;6.50;99.90;;;;;;5069865;28;20625;-70
2023/01/12 06:43:56;;;;;;;3.33;1.42;;;6.50;99.90;;;;;;5069787;28;20223;-69
2023/01/12 06:46:22;;;;;;;6.20;1.40;;;6.50;99.90;;;;;;5070124;28;20223;-70
2023/01/12 06:48:50;;;;;;;3.20;1.65;;;6.50;99.90;;;;;;5069736;28;20208;-70
2023/01/12 06:51:17;;;;;;;1.45;1.20;;;6.50;99.90;;;;;;5070243;28;20208;-70
2023/01/12 06:53:44;;;;;;;4.03;1.35;;;6.50;99.90;;;;;;5069909;28;20203;-70
2023/01/12 06:56:10;;;;;;;1.33;1.23;;;6.50;99.90;;;;;;5069759;28;20220;-70
2023/01/12 06:58:37;;;;;;;5.25;1.50;;;6.50;99.90;;;;;;5069847;28;20200;-69
2023/01/12 07:01:04;;;;;;;4.55;2.00;;;6.50;99.90;;;;;;5069934;28;20212;-69
2023/01/12 07:03:31;;;;;;;5.97;1.80;;;6.60;99.90;;;;;;5070248;28;20469;-70
2023/01/12 07:05:59;;;;;;;3.80;1.30;;;6.60;99.90;;;;;;5069544;28;20227;-69
2023/01/12 07:08:27;;;;;;;1.65;1.17;;;6.60;99.90;;;;;;5072815;28;20211;-70
2023/01/12 07:10:54;;;;;;;3.13;1.30;;;6.70;99.90;;;;;;5074186;28;20709;-70
2023/01/12 07:13:21;;;;;;;3.38;1.55;;;6.70;99.90;;;;;;5073488;28;20229;-70
2023/01/12 07:15:48;;;;;;;1.40;1.20;;;6.80;99.90;;;;;;5074060;28;20258;-70
2023/01/12 07:18:15;;;;;;;1.50;1.35;;;6.80;99.90;;;;;;5072834;28;20298;-70
2023/01/12 07:20:42;;;;;;;2.55;1.55;;;6.90;99.90;;;;;;5073817;28;20212;-70
2023/01/12 07:23:10;;;;;;;1.95;1.13;;;6.90;99.90;;;;;;5073393;28;20236;-70
2023/01/12 07:25:37;;;;;;;2.03;1.70;;;6.90;99.90;;;;;;5073922;28;20197;-69
2023/01/12 07:28:04;;;;;;;2.50;1.60;;;7.00;99.90;;;;;;5073496;28;20208;-70
2023/01/12 07:30:31;;;;;;;4.40;1.40;;;7.00;99.90;;;;;;5072928;28;20204;-70
2023/01/12 07:33:06;;;;;;;1.45;1.30;;;7.00;99.90;;;;;;5073638;28;20642;-70
2023/01/12 07:35:32;;;;;;;5.40;1.60;;;7.00;99.90;;;;;;5069362;28;20585;-69
2023/01/12 07:37:59;;;;;;;2.85;1.55;;;7.00;99.90;;;;;;5053232;28;20212;-70
2023/01/12 07:40:27;;;;;;;6.32;1.67;;;7.00;99.90;;;;;;5050882;28;20568;-70
2023/01/12 07:42:59;;;;;;;1.52;1.10;;;7.00;99.90;;;;;;5053526;28;20205;-70
2023/01/12 07:45:25;;;;;;;6.30;1.52;;;7.00;99.90;;;;;;5053578;28;20201;-70
2023/01/12 07:47:53;;;;;;;4.35;1.35;;;7.00;99.90;;;;;;5053798;28;20225;-70
2023/01/12 07:50:19;;;;;;;2.42;1.42;;;7.00;99.90;;;;;;5052800;28;20229;-70
2023/01/12 07:52:46;;;;;;;4.03;1.30;;;6.90;99.90;;;;;;5052789;28;20212;-70
2023/01/12 07:55:15;;;;;;;5.75;1.75;;;6.90;99.90;;;;;;5053139;28;20201;-69
2023/01/12 07:57:43;;;;;;;2.17;1.20;;;6.90;99.90;;;;;;5053447;28;20316;-70
2023/01/12 08:00:11;;;;;;;7.35;1.77;;;6.90;99.90;;;;;;5052348;28;20205;-69
2023/01/12 08:02:38;;;;;;;4.82;1.85;;;6.90;99.90;;;;;;5053401;28;20208;-69
2023/01/12 08:05:05;;;;;;;2.97;1.55;;;6.90;99.90;;;;;;5052627;28;20423;-69
2023/01/12 08:07:33;;;;;;;1.40;1.20;;;6.90;99.90;;;;;;5053390;28;20221;-70
2023/01/12 08:09:59;;;;;;;1.92;1.23;;;6.90;99.90;;;;;;5052395;28;20233;-69
2023/01/12 08:12:29;;;;;;;1.77;1.25;;;6.90;99.90;;;;;;5053405;28;20209;-69
2023/01/12 08:14:59;;;;;;;3.08;1.60;;;6.90;99.90;;;;;;5052807;28;20232;-69
2023/01/12 08:17:26;;;;;;;2.53;1.10;;;6.90;99.90;;;;;;5052668;28;20252;-70
2023/01/12 08:19:59;;;;;;;1.80;1.17;;;6.90;99.90;;;;;;5051546;28;20201;-68
2023/01/12 08:22:32;;;;;;;4.22;1.25;;;6.90;99.90;;;;;;5053112;28;20205;-69
2023/01/12 08:25:05;;;;;;;5.47;1.85;;;7.00;99.90;;;;;;5052773;28;20216;-69
2023/01/12 08:27:33;;;;;;;3.05;1.20;;;7.00;99.90;;;;;;5052778;28;20267;-69
2023/01/12 08:30:03;;;;;;;7.47;1.50;;;7.00;99.90;;;;;;5051788;28;20201;-69
2023/01/12 08:32:30;;;;;;;1.20;1.00;;;7.00;99.90;;;;;;5053790;28;20216;-69
2023/01/12 08:35:00;;;;;;;2.47;1.15;;;7.00;99.90;;;;;;5052805;28;20204;-68
2023/01/12 08:37:28;;;;;;;2.88;1.33;;;7.10;99.90;;;;;;5052214;28;20225;-69
2023/01/12 08:39:55;;;;;;;1.45;1.00;;;7.10;99.90;;;;;;5052233;28;20665;-69
2023/01/12 08:42:23;;;;;;;1.88;1.50;;;7.10;99.90;;;;;;5051977;28;20682;-69
2023/01/12 08:44:49;;;;;;;2.53;1.20;;;7.10;99.90;;;;;;5067610;28;20569;-69
2023/01/12 08:47:20;;;;;;;1.60;1.25;;;7.10;99.90;;;;;;5071703;28;20212;-69
2023/01/12 08:49:47;;;;;;;3.60;1.63;;;7.10;99.90;;;;;;5069309;28;20265;-69
2023/01/12 08:52:15;;;;;;;2.20;1.20;;;7.20;99.90;;;;;;5071623;28;20203;-69
2023/01/12 08:54:42;;;;;;;1.75;1.08;;;7.20;99.90;;;;;;5068930;28;20193;-69
2023/01/12 08:57:09;;;;;;;3.08;1.35;;;7.20;99.90;;;;;;5072215;28;20224;-69
2023/01/12 08:59:36;;;;;;;3.47;1.10;;;7.20;99.90;;;;;;5071985;28;20690;-70
2023/01/12 09:02:03;;;;;;;2.75;0.90;;;7.20;99.90;;;;;;5071780;28;20197;-70
2023/01/12 09:04:31;;;;;;;3.58;1.25;;;7.20;99.90;;;;;;5072133;28;20717;-70
2023/01/12 09:06:58;;;;;;;1.52;1.35;;;7.20;99.90;;;;;;5071280;28;20216;-70
2023/01/12 09:09:25;;;;;;;2.35;1.00;;;7.30;99.90;;;;;;5071480;28;20207;-69
2023/01/12 09:11:52;;;;;;;4.13;1.60;;;7.30;99.90;;;;;;5071860;28;20207;-69
2023/01/12 09:14:19;;;;;;;4.53;1.90;;;7.30;99.90;;;;;;5071876;28;20296;-69
2023/01/12 09:16:45;;;;;;;1.75;1.35;;;7.30;99.90;;;;;;5071952;28;20228;-69
2023/01/12 09:19:12;;;;;;;4.00;1.08;;;7.40;99.90;;;;;;5070978;28;20557;-69
2023/01/12 09:21:42;;;;;;;3.90;1.13;;;7.40;99.90;;;;;;5072111;28;20208;-69
2023/01/12 09:24:09;;;;;;;2.75;1.00;;;7.50;99.90;;;;;;5069584;28;20305;-69
2023/01/12 09:26:38;;;;;;;2.05;1.08;;;7.50;99.90;;;;;;5072082;28;20560;-68
2023/01/12 09:29:06;;;;;;;6.55;1.90;;;7.50;99.90;;;;;;5071195;28;20589;-69
2023/01/12 09:31:35;;;;;;;2.55;1.33;;;7.50;99.90;;;;;;5071135;28;20211;-69
2023/01/12 09:34:02;;;;;;;2.53;1.10;;;7.60;99.90;;;;;;5071510;28;20592;-69
2023/01/12 09:36:30;;;;;;;6.90;2.00;;;7.60;99.90;;;;;;5071535;28;20220;-69
2023/01/12 09:39:00;;;;;;;7.50;1.75;;;7.60;99.90;;;;;;5071049;28;20556;-69
2023/01/12 09:47:07;;;;;;;3.15;1.17;;;7.70;99.90;;;;;;5070654;28;20272;-69
2023/01/12 09:49:38;;;;;;;1.00;0.70;;;7.80;99.90;;;;;;5071013;28;20201;-69
2023/01/12 09:52:12;;;;;;;3.10;1.30;;;7.80;99.90;;;;;;5070312;28;20208;-69
2023/01/12 09:54:40;;;;;;;2.40;2.22;;;7.80;99.90;;;;;;5070683;28;20552;-69
2023/01/12 09:57:24;;;;;;;1.17;0.90;;;7.80;99.90;;;;;;5070426;28;20224;-69
2023/01/12 09:59:57;;;;;;;1.75;1.20;;;7.90;99.90;;;;;;5070400;28;20274;-70
2023/01/12 10:02:25;;;;;;;4.78;1.60;;;7.90;99.90;;;;;;5070635;28;20200;-69
2023/01/12 10:04:54;;;;;;;5.57;1.13;;;7.90;99.90;;;;;;5070531;28;20216;-69
2023/01/12 10:07:20;;;;;;;1.20;0.90;;;8.00;99.90;;;;;;5069953;28;20227;-69
2023/01/12 10:09:49;;;;;;;0.90;0.80;;;8.00;99.90;;;;;;5070283;28;20204;-69
2023/01/12 10:12:22;;;;;;;2.47;1.27;;;8.00;99.90;;;;;;5070626;28;20667;-69
2023/01/12 10:15:06;;;;;;;4.22;1.30;;;8.10;99.90;;;;;;5070714;28;20200;-69
2023/01/12 10:17:41;;;;;;;1.35;1.13;;;8.10;99.90;;;;;;5066897;28;20216;-69
2023/01/12 10:20:20;;;;;;;2.72;1.10;;;8.10;99.90;;;;;;5067706;28;20203;-69
2023/01/12 10:22:52;;;;;;;5.13;1.30;;;8.10;99.90;;;;;;5069245;28;20237;-69
2023/01/12 10:25:27;;;;;;;3.92;1.25;;;8.20;99.90;;;;;;5070550;28;20235;-70
2023/01/12 10:27:56;;;;;;;4.43;1.10;;;8.20;99.90;;;;;;5070754;28;20468;-70
2023/01/12 10:30:30;;;;;;;2.58;0.90;;;8.20;99.90;;;;;;5070385;28;20281;-70
2023/01/12 10:32:57;;;;;;;4.40;1.25;;;8.20;99.90;;;;;;5070206;28;20204;-70
2023/01/12 10:35:25;;;;;;;5.35;1.48;;;8.20;99.90;;;;;;5070950;28;20227;-71
2023/01/12 10:37:54;;;;;;;1.65;1.00;;;8.30;99.90;;;;;;5070526;28;20761;-70
2023/01/12 10:40:29;;;;;;;1.70;1.15;;;8.30;99.90;;;;;;5070147;28;20212;-70
2023/01/12 10:43:22;;;;;;;3.20;1.60;;;8.40;99.90;;;;;;5070262;28;20574;-71
2023/01/12 10:46:10;;;;;;;0.90;0.80;;;8.40;99.90;;;;;;5070836;28;20259;-71
2023/01/12 10:48:38;;;;;;;1.55;0.98;;;8.40;99.90;;;;;;5070558;28;20208;-70
2023/01/12 10:51:07;;;;;;;1.50;1.05;;;8.50;99.90;;;;;;5070618;28;20220;-70
2023/01/12 10:53:44;;;;;;;2.75;1.00;;;8.50;99.90;;;;;;5070876;28;20204;-70
2023/01/12 10:56:19;;;;;;;1.00;0.70;;;8.60;99.90;;;;;;5070342;28;20216;-69
2023/01/12 10:58:53;;;;;;;1.95;1.20;;;8.60;99.90;;;;;;5070574;28;20283;-69
2023/01/12 11:01:21;;;;;;;2.35;1.00;;;8.60;99.90;;;;;;5070240;28;20207;-69
2023/01/12 11:03:48;;;;;;;1.48;0.95;;;8.60;99.90;;;;;;5070681;28;20261;-69
2023/01/12 11:06:27;;;;;;;1.20;0.90;;;8.60;99.90;;;;;;5070591;28;20255;-69
2023/01/12 11:08:54;;;;;;;1.10;0.80;;;8.60;99.90;;;;;;5069883;28;20200;-70
2023/01/12 11:11:30;;;;;;;0.90;0.80;;;8.60;99.90;;;;;;5070713;28;20204;-70
2023/01/12 11:13:58;;;;;;;1.92;1.15;;;8.50;99.90;;;;;;5067035;28;20211;-69
2023/01/12 11:16:29;;;;;;;1.02;0.80;;;8.50;99.90;;;;;;5066689;28;20223;-70
2023/01/12 11:19:17;;;;;;;2.63;1.10;;;8.60;99.90;;;;;;5069259;28;20246;-70
2023/01/12 11:21:48;;;;;;;1.00;0.88;;;8.60;99.90;;;;;;5070143;28;20236;-70
2023/01/12 11:24:23;;;;;;;1.42;0.93;;;8.60;99.90;;;;;;5070754;28;20212;-70
2023/01/12 11:26:54;;;;;;;0.88;0.75;;;8.60;99.90;;;;;;5073896;28;20224;-69
2023/01/12 11:29:41;;;;;;;1.92;0.90;;;8.60;99.90;;;;;;5073931;28;20202;-70
2023/01/12 11:32:15;;;;;;;1.52;0.93;;;8.60;99.90;;;;;;5075209;28;20200;-70
2023/01/12 11:34:54;;;;;;;1.00;0.80;;;8.60;99.90;;;;;;5073036;28;20201;-69
2023/01/12 11:37:21;;;;;;;1.92;1.00;;;8.60;99.90;;;;;;5070436;28;20260;-70
2023/01/12 11:39:52;;;;;;;2.45;1.25;;;8.60;99.90;;;;;;5068587;28;20247;-70
2023/01/12 11:45:15;;;;;;;1.65;0.95;;;8.60;99.90;;;;;;5069978;28;20870;-70
2023/01/12 11:47:48;;;;;;;1.00;0.90;;;8.60;99.90;;;;;;5069412;28;20231;-69
2023/01/12 11:50:20;;;;;;;1.00;0.90;;;8.60;99.90;;;;;;5066433;28;20299;-70
2023/01/12 11:52:47;;;;;;;0.93;0.70;;;8.60;99.90;;;;;;5069630;28;20578;-69
2023/01/12 11:55:16;;;;;;;2.03;0.77;;;8.60;99.90;;;;;;5072050;28;20205;-69
2023/01/12 11:57:58;;;;;;;1.30;0.90;;;8.50;99.90;;;;;;5072689;28;20303;-69
2023/01/12 12:00:35;;;;;;;1.42;0.77;;;8.50;99.90;;;;;;5072362;28;20223;-69
2023/01/12 12:03:18;;;;;;;1.90;0.80;;;8.50;99.90;;;;;;5071505;28;20203;-69
2023/01/12 12:05:50;;;;;;;1.00;0.80;;;8.50;99.90;;;;;;5073495;28;20216;-69
2023/01/12 12:08:29;;;;;;;1.48;0.80;;;8.40;99.90;;;;;;5072581;28;20666;-70
2023/01/12 12:11:01;;;;;;;1.00;0.80;;;8.50;99.90;;;;;;5072681;28;20211;-68
2023/01/12 12:13:36;;;;;;;2.85;1.13;;;8.50;99.90;;;;;;5073334;28;20200;-69
2023/01/12 12:16:16;;;;;;;5.03;1.00;;;8.50;99.90;;;;;;5072955;28;20216;-69
2023/01/12 12:18:55;;;;;;;1.02;0.90;;;8.60;99.90;;;;;;5070981;28;20664;-69
2023/01/12 12:21:39;;;;;;;1.73;0.95;;;8.60;99.90;;;;;;5072509;28;20211;-70
2023/01/12 12:24:16;;;;;;;1.50;0.90;;;8.60;99.90;;;;;;5072627;28;20211;-69
2023/01/12 12:26:47;;;;;;;0.90;0.80;;;8.60;99.90;;;;;;5072604;28;20247;-69
2023/01/12 12:29:32;;;;;;;6.07;1.33;;;8.60;99.90;;;;;;5072452;28;20211;-69
2023/01/12 12:32:13;;;;;;;1.33;1.05;;;8.60;99.90;;;;;;5072478;28;20675;-68
2023/01/12 12:35:00;;;;;;;2.03;1.10;;;8.60;99.90;;;;;;5072384;28;20698;-70
2023/01/12 12:37:39;;;;;;;3.13;1.10;;;8.60;99.90;;;;;;5072698;28;20589;-70
2023/01/12 12:40:19;;;;;;;1.20;0.70;;;8.60;99.90;;;;;;5071856;28;20215;-71
2023/01/12 12:45:53;;;;;;;1.50;0.90;;;8.60;99.90;;;;;;5072238;28;20302;-68
2023/01/12 12:48:23;;;;;;;1.10;0.90;;;8.70;99.90;;;;;;5071807;28;20208;-69
2023/01/12 12:51:00;;;;;;;0.88;0.75;;;8.80;99.90;;;;;;5072303;28;20196;-69
2023/01/12 12:53:29;;;;;;;0.90;0.73;;;8.90;99.90;;;;;;5072418;28;20208;-69
2023/01/12 12:55:59;;;;;;;2.08;0.80;;;8.90;99.90;;;;;;5072057;28;20224;-69
2023/01/12 12:58:29;;;;;;;1.55;0.90;;;8.90;99.90;;;;;;5071507;28;20555;-69
2023/01/12 13:01:42;;;;;;;1.05;0.73;;;8.90;99.90;;;;;;5072016;28;20733;-69
2023/01/12 13:04:12;;;;;;;1.20;0.80;;;9.00;99.90;;;;;;5067568;28;20577;-69
2023/01/12 13:06:42;;;;;;;1.38;0.80;;;9.00;99.90;;;;;;5068628;28;20263;-69
2023/01/12 13:09:38;;;;;;;1.27;0.90;;;9.00;99.90;;;;;;5070527;28;20239;-69
2023/01/12 13:12:31;;;;;;;1.17;0.98;;;9.00;99.90;;;;;;5070666;28;20215;-69
2023/01/12 13:15:18;;;;;;;1.00;0.90;;;9.00;99.90;;;;;;5070571;28;20254;-69
2023/01/12 13:17:48;;;;;;;1.92;1.02;;;9.00;99.90;;;;;;5070940;28;20672;-69
2023/01/12 13:20:50;;;;;;;4.30;0.98;;;9.00;99.90;;;;;;5069622;28;20595;-69
2023/01/12 13:23:54;;;;;;;1.45;0.95;;;9.00;99.90;;;;;;5069151;28;20206;-70
2023/01/12 13:26:36;;;;;;;1.05;0.80;;;9.00;99.90;;;;;;5071588;28;20231;-69
2023/01/12 13:29:43;;;;;;;1.00;0.90;;;9.00;99.90;;;;;;5070734;28;20204;-70
2023/01/12 13:32:34;;;;;;;2.53;1.20;;;8.90;99.90;;;;;;5070905;28;20200;-70
2023/01/12 13:35:03;;;;;;;1.17;0.82;;;8.90;99.90;;;;;;5070476;28;20189;-69
2023/01/12 13:37:44;;;;;;;1.48;1.00;;;8.90;99.90;;;;;;5071295;28;20227;-69
2023/01/12 13:40:18;;;;;;;7.28;1.42;;;8.80;99.90;;;;;;5071090;28;20199;-69
2023/01/12 13:45:30;;;;;;;1.00;0.70;;;8.90;99.90;;;;;;5071325;28;20311;-69
2023/01/12 13:47:57;;;;;;;0.90;0.80;;;8.80;99.90;;;;;;5070929;28;20220;-69
2023/01/12 13:50:28;;;;;;;3.67;1.05;;;8.80;99.90;;;;;;5071084;28;20201;-70
2023/01/12 13:52:59;;;;;;;1.00;0.80;;;8.80;99.90;;;;;;5071269;28;20687;-69
2023/01/12 13:55:28;;;;;;;1.10;0.90;;;8.80;99.90;;;;;;5071204;28;20230;-69
2023/01/12 13:58:01;;;;;;;1.05;0.90;;;8.80;99.90;;;;;;5070442;28;20216;-69
2023/01/12 14:00:31;;;;;;;1.10;0.80;;;8.80;99.90;;;;;;5070026;28;20212;-70